Open Full Screen Window  High Contrast Mode
February 27, 2015 6:36 AM EST
Present Weather: Light Snow
Weather Information
Wind Direction
  ---
Wind Speed
  00 kt (0 mph)
Wind Gust
  00 kt (0 mph)
Altimeter
30.46 in
Visibility
7 SM
Temperature
-12° C
10° F
Dewpoint
-14° C
F
Humidity
85%
1hr Rain Fall
00.00 in.
24hr Rain Fall
00.00 in.
Sky Condition
Overcast @ 3,600 ft
Scattered @ 3,000 ft
VFR

METAR KI69 271136Z AUTO 00000KT 7SM -SN SCT030 OVC036 M12/M14 A3046 RMK AO1

*Background is not an actual portrayal of the airport.